createdAt,value
2022-12-03T07:20:04.930Z,24.10
2022-12-03T07:22:43.007Z,20.03
2022-12-03T07:25:23.535Z,19.60
2022-12-03T07:28:01.461Z,18.30
2022-12-03T07:30:38.567Z,18.70
2022-12-03T07:33:15.864Z,18.27
2022-12-03T07:35:55.442Z,17.67
2022-12-03T07:38:33.425Z,18.70
2022-12-03T07:41:11.213Z,16.97
2022-12-03T07:43:48.594Z,18.33
2022-12-03T07:46:25.852Z,18.40
2022-12-03T07:49:03.948Z,18.07
2022-12-03T07:51:44.565Z,17.70
2022-12-03T07:54:22.213Z,17.57
2022-12-03T07:57:01.659Z,18.27
2022-12-03T07:59:39.294Z,18.77
2022-12-03T08:02:21.216Z,17.90
2022-12-03T08:04:59.784Z,20.05
2022-12-03T08:07:39.752Z,19.33
2022-12-03T08:10:18.175Z,17.57
2022-12-03T08:12:55.077Z,17.83
2022-12-03T08:15:39.040Z,17.40
2022-12-03T08:18:33.769Z,19.07
2022-12-03T08:21:25.049Z,19.83
2022-12-03T08:24:14.894Z,17.63
2022-12-03T08:26:53.355Z,19.37
2022-12-03T08:29:30.299Z,19.23
2022-12-03T08:32:10.033Z,17.47
2022-12-03T08:34:48.099Z,17.43
2022-12-03T08:37:25.480Z,17.70
2022-12-03T08:40:04.867Z,17.13
2022-12-03T08:42:44.935Z,17.10
2022-12-03T08:45:43.547Z,16.83
2022-12-03T08:48:37.165Z,16.57
2022-12-03T08:51:24.171Z,17.33
2022-12-03T08:54:23.234Z,16.90
2022-12-03T08:57:04.339Z,16.20
2022-12-03T08:59:45.463Z,17.53
2022-12-03T09:02:32.120Z,18.90
2022-12-03T09:05:19.588Z,18.03
2022-12-03T09:07:56.471Z,17.80
2022-12-03T09:10:33.716Z,17.33
2022-12-03T09:13:13.105Z,18.83
2022-12-03T09:15:50.347Z,17.30
2022-12-03T09:18:27.079Z,17.00
2022-12-03T09:21:04.463Z,17.40
2022-12-03T09:23:41.453Z,18.07
2022-12-03T09:26:18.767Z,17.73
2022-12-03T09:28:58.493Z,19.70
2022-12-03T09:31:36.221Z,18.10
2022-12-03T09:34:13.632Z,17.77
2022-12-03T09:36:50.827Z,17.83
2022-12-03T09:39:27.647Z,18.87
2022-12-03T09:42:05.456Z,17.73
2022-12-03T09:44:45.058Z,19.93
2022-12-03T09:47:22.656Z,19.13
2022-12-03T09:50:01.373Z,17.87
2022-12-03T09:52:39.087Z,17.90
2022-12-03T09:55:21.117Z,18.60
2022-12-03T09:58:01.164Z,17.90
2022-12-03T10:00:40.665Z,18.40
2022-12-03T10:03:26.533Z,19.43
2022-12-03T10:06:06.736Z,18.43
2022-12-03T10:08:43.985Z,19.23
2022-12-03T10:11:23.458Z,20.53
2022-12-03T10:14:02.776Z,20.37
2022-12-03T10:16:43.307Z,19.77
2022-12-03T10:19:27.359Z,20.07
2022-12-03T10:22:04.169Z,20.27
2022-12-03T10:24:42.967Z,19.97
2022-12-03T10:27:32.586Z,20.63
2022-12-03T10:30:22.637Z,21.47
2022-12-03T10:33:02.943Z,18.77
2022-12-03T10:35:43.905Z,17.83
2022-12-03T10:38:25.545Z,19.40
2022-12-03T10:41:26.106Z,19.90
2022-12-03T10:44:18.946Z,19.40
2022-12-03T10:47:11.833Z,19.35
2022-12-03T10:50:07.297Z,18.17
2022-12-03T10:52:44.687Z,20.07
2022-12-03T10:55:22.989Z,19.80
2022-12-03T10:58:00.739Z,20.13
2022-12-03T11:00:38.228Z,18.43
2022-12-03T11:03:24.517Z,21.37
2022-12-03T11:06:05.942Z,20.27
2022-12-03T11:08:52.982Z,20.63
2022-12-03T11:11:34.601Z,19.73
2022-12-03T11:14:21.228Z,20.33
2022-12-03T11:17:14.405Z,20.43
2022-12-03T11:19:52.998Z,21.30
2022-12-03T11:22:47.994Z,22.00
2022-12-03T11:25:51.139Z,22.07
2022-12-03T11:28:54.684Z,22.27
2022-12-03T11:31:44.766Z,18.30
2022-12-03T11:34:53.019Z,18.20
2022-12-03T11:37:33.953Z,19.27
2022-12-03T11:40:39.744Z,19.27
2022-12-03T11:43:17.346Z,18.83
2022-12-03T11:45:57.269Z,16.60
2022-12-03T11:48:37.262Z,18.03
2022-12-03T11:51:19.255Z,18.93
2022-12-03T11:54:02.715Z,17.67
2022-12-03T11:56:39.435Z,20.63
2022-12-03T11:59:17.756Z,19.40
2022-12-03T12:01:54.677Z,20.00
2022-12-03T12:04:38.184Z,19.50
2022-12-03T12:07:15.024Z,18.20
2022-12-03T12:09:58.031Z,17.43
2022-12-03T12:12:49.003Z,18.70
2022-12-03T12:15:47.305Z,18.63
2022-12-03T12:18:41.863Z,17.27
2022-12-03T12:21:48.202Z,18.17
2022-12-03T12:24:38.517Z,18.40
2022-12-03T12:27:20.563Z,18.87
2022-12-03T12:30:01.511Z,18.52
2022-12-03T12:32:48.089Z,18.47
2022-12-03T12:35:32.892Z,18.13
2022-12-03T12:38:20.641Z,18.33
2022-12-03T12:40:57.551Z,16.03
2022-12-03T12:43:39.938Z,18.50
2022-12-03T12:46:46.727Z,16.93
2022-12-03T12:49:21.937Z,17.70
2022-12-03T12:52:01.497Z,17.80
2022-12-03T12:54:41.043Z,19.13
2022-12-03T12:57:26.148Z,17.63
2022-12-03T13:00:09.927Z,17.60
2022-12-03T13:02:50.673Z,20.40
2022-12-03T13:05:29.879Z,18.37
2022-12-03T13:08:10.385Z,19.97
2022-12-03T13:10:47.738Z,18.33
2022-12-03T13:13:43.307Z,20.50
2022-12-03T13:16:37.039Z,18.90
2022-12-03T13:19:26.169Z,18.10
2022-12-03T13:22:14.077Z,19.83
2022-12-03T13:24:53.419Z,18.97
2022-12-03T13:27:33.027Z,19.33
2022-12-03T13:30:20.367Z,18.80
2022-12-03T13:33:02.478Z,17.60
2022-12-03T13:35:40.375Z,17.97
2022-12-03T13:38:20.436Z,18.53
2022-12-03T13:41:04.992Z,20.57
2022-12-03T13:43:44.587Z,20.33
2022-12-03T13:46:22.554Z,19.37
2022-12-03T13:49:02.887Z,19.90
2022-12-03T13:51:43.127Z,17.97
2022-12-03T13:54:26.026Z,19.57
2022-12-03T13:57:06.251Z,17.60
2022-12-03T13:59:43.658Z,18.87
2022-12-03T14:02:20.582Z,17.90
2022-12-03T14:05:00.934Z,18.40
2022-12-03T14:07:37.960Z,19.30
2022-12-03T14:10:17.532Z,18.87
2022-12-03T14:12:54.362Z,18.73
2022-12-03T14:15:31.609Z,20.83
2022-12-03T14:18:09.241Z,24.13
2022-12-03T14:20:49.322Z,21.40
2022-12-03T14:23:26.211Z,21.43
2022-12-03T14:26:04.043Z,20.20
2022-12-03T14:28:41.423Z,19.93
2022-12-03T14:31:18.669Z,19.37
2022-12-03T14:33:56.259Z,19.37
2022-12-03T14:36:36.050Z,18.57
2022-12-03T14:39:13.447Z,19.83
2022-12-03T14:42:03.090Z,18.90
2022-12-03T14:44:40.250Z,19.73
2022-12-03T14:47:19.253Z,20.37
2022-12-03T14:49:56.451Z,18.87
2022-12-03T14:52:37.078Z,20.57
2022-12-03T14:55:14.023Z,18.10
2022-12-03T14:57:51.299Z,17.90
2022-12-03T15:00:28.280Z,18.93
2022-12-03T15:03:05.440Z,20.00
2022-12-03T15:05:42.906Z,17.77
2022-12-03T15:08:24.827Z,20.33
2022-12-03T15:11:01.956Z,19.27
2022-12-03T15:13:44.987Z,19.90
2022-12-03T15:16:24.088Z,18.37
2022-12-03T15:19:04.386Z,20.13
2022-12-03T15:21:41.196Z,18.87
2022-12-03T15:24:21.091Z,20.23
2022-12-03T15:26:57.991Z,18.93
2022-12-03T15:29:35.549Z,20.33
2022-12-03T15:32:12.321Z,21.87
2022-12-03T15:34:51.930Z,20.30
2022-12-03T15:37:30.040Z,18.83
2022-12-03T15:40:12.281Z,20.90
2022-12-03T15:42:54.205Z,18.93
2022-12-03T15:45:34.765Z,21.50
2022-12-03T15:48:14.074Z,20.27
2022-12-03T15:50:51.456Z,22.07
2022-12-03T15:53:28.988Z,20.53
2022-12-03T15:56:10.254Z,19.23
2022-12-03T15:58:47.663Z,19.87
2022-12-03T16:01:25.961Z,20.23
2022-12-03T16:04:09.939Z,22.33
2022-12-03T16:06:52.495Z,22.70
2022-12-03T16:09:31.316Z,26.13
2022-12-03T16:12:12.176Z,26.70
2022-12-03T16:14:50.046Z,24.70
2022-12-03T16:17:27.715Z,33.17
2022-12-03T16:20:06.843Z,37.80
2022-12-03T16:22:44.877Z,32.57
2022-12-03T16:25:26.715Z,30.67
2022-12-03T16:28:06.787Z,26.57
2022-12-03T16:30:49.385Z,26.73
2022-12-03T16:33:34.386Z,24.37
2022-12-03T16:36:13.624Z,24.37
2022-12-03T16:38:54.644Z,26.17
2022-12-03T16:41:33.794Z,26.27
2022-12-03T16:44:31.201Z,24.37
2022-12-03T16:47:10.045Z,21.40
2022-12-03T16:49:48.260Z,21.97
2022-12-03T16:52:25.505Z,23.23
2022-12-03T16:55:04.746Z,22.87
2022-12-03T16:57:41.748Z,22.57
2022-12-03T17:00:22.977Z,24.73
2022-12-03T17:02:59.996Z,24.23
2022-12-03T17:05:37.700Z,24.03
2022-12-03T17:08:15.221Z,23.27
2022-12-03T17:10:52.935Z,24.30
2022-12-03T17:13:30.076Z,24.33
2022-12-03T17:16:10.412Z,24.30
2022-12-03T17:18:47.214Z,23.00
2022-12-03T17:21:24.437Z,23.80
2022-12-03T17:24:01.511Z,25.80
2022-12-03T17:26:38.751Z,24.23
2022-12-03T17:29:15.677Z,22.13
2022-12-03T17:31:56.152Z,23.63
2022-12-03T17:34:33.421Z,23.47
2022-12-03T17:37:10.959Z,22.23
2022-12-03T17:39:47.861Z,23.10
2022-12-03T17:42:25.057Z,21.70
2022-12-03T17:45:01.858Z,25.07
2022-12-03T17:47:42.637Z,23.47
2022-12-03T17:50:20.728Z,22.97
2022-12-03T17:52:58.922Z,22.87
2022-12-03T17:55:44.048Z,23.37
2022-12-03T17:58:24.083Z,23.10
2022-12-03T18:01:03.067Z,25.60
2022-12-03T18:03:45.970Z,23.80
2022-12-03T18:06:24.329Z,23.57
2022-12-03T18:09:04.036Z,23.47
2022-12-03T18:11:41.677Z,23.90
2022-12-03T18:14:20.003Z,23.57
2022-12-03T18:16:57.212Z,23.70
2022-12-03T18:19:39.085Z,23.67
2022-12-03T18:22:17.720Z,24.47
2022-12-03T18:24:55.926Z,24.30
2022-12-03T18:27:33.601Z,21.07
2022-12-03T18:30:12.706Z,21.90
2022-12-03T18:32:51.505Z,22.97
2022-12-03T18:35:31.815Z,24.03
2022-12-03T18:38:08.868Z,23.37
2022-12-03T18:40:48.555Z,22.93
2022-12-03T18:43:26.285Z,24.87
2022-12-03T18:46:04.801Z,25.17
2022-12-03T18:48:42.581Z,24.07
2022-12-03T18:51:25.850Z,22.77
2022-12-03T18:54:04.136Z,22.77
2022-12-03T18:56:44.450Z,21.33
2022-12-03T18:59:21.780Z,26.00
2022-12-03T19:01:59.901Z,23.40
2022-12-03T19:04:37.885Z,22.30
2022-12-03T19:07:19.049Z,23.37
2022-12-03T19:10:00.984Z,23.90
2022-12-03T19:12:38.770Z,22.60
2022-12-03T19:15:19.538Z,24.03
2022-12-03T19:17:57.189Z,25.23
2022-12-03T19:20:35.139Z,25.37
2022-12-03T19:23:15.471Z,24.83
2022-12-03T19:26:00.519Z,25.40
2022-12-03T19:28:39.262Z,25.37
2022-12-03T19:31:19.852Z,26.07
2022-12-03T19:33:58.044Z,26.90
2022-12-03T19:36:36.299Z,24.93
2022-12-03T19:39:21.610Z,27.13
2022-12-03T19:42:01.423Z,26.00
2022-12-03T19:44:40.829Z,26.33
2022-12-03T19:47:18.130Z,25.37
2022-12-03T19:49:57.569Z,27.13
2022-12-03T19:52:40.140Z,23.73
2022-12-03T19:55:20.798Z,25.33
2022-12-03T19:57:58.470Z,25.37
2022-12-03T20:00:37.710Z,28.70
2022-12-03T20:03:15.410Z,26.57
2022-12-03T20:05:53.719Z,26.83
2022-12-03T20:08:31.451Z,26.27
2022-12-03T20:11:18.198Z,26.73
2022-12-03T20:14:07.869Z,24.43
2022-12-03T20:16:46.908Z,27.37
2022-12-03T20:19:25.168Z,24.53
2022-12-03T20:22:03.837Z,24.73
2022-12-03T20:24:41.557Z,31.53
2022-12-03T20:27:23.143Z,26.00
2022-12-03T20:30:00.878Z,28.07
2022-12-03T20:32:45.045Z,26.77
2022-12-03T20:35:25.781Z,24.37
2022-12-03T20:38:04.992Z,25.20
2022-12-03T20:40:42.668Z,26.73
2022-12-03T20:43:23.427Z,26.83
2022-12-03T20:46:02.853Z,27.47
2022-12-03T20:48:41.872Z,27.27
2022-12-03T20:51:21.074Z,25.77
2022-12-03T20:54:00.497Z,26.97
2022-12-03T20:56:42.772Z,25.80
2022-12-03T20:59:23.265Z,26.60
2022-12-03T21:02:04.035Z,26.63
2022-12-03T21:04:45.327Z,26.63
2022-12-03T21:07:23.191Z,27.37
2022-12-03T21:10:00.562Z,26.43
2022-12-03T21:12:38.211Z,27.07
2022-12-03T21:15:18.383Z,26.27
2022-12-03T21:17:56.256Z,25.93
2022-12-03T21:20:34.165Z,27.00
2022-12-03T21:23:12.256Z,27.83
2022-12-03T21:25:49.873Z,26.60
2022-12-03T21:28:27.108Z,24.77
2022-12-03T21:31:10.707Z,25.60
2022-12-03T21:33:48.166Z,26.17
2022-12-03T21:36:25.834Z,26.87
2022-12-03T21:39:03.464Z,27.13
2022-12-03T21:42:34.749Z,25.97
2022-12-03T21:44:44.151Z,25.87
2022-12-03T21:47:37.038Z,24.83
2022-12-03T21:50:18.701Z,26.60
2022-12-03T21:52:56.472Z,25.70
2022-12-03T21:55:34.923Z,26.57
2022-12-03T21:58:14.529Z,24.00
2022-12-03T22:00:56.731Z,25.87
2022-12-03T22:03:37.232Z,28.13
2022-12-03T22:06:15.281Z,27.00
2022-12-03T22:08:54.346Z,26.87
2022-12-03T22:11:31.683Z,24.97
2022-12-03T22:14:12.625Z,25.90
2022-12-03T22:16:49.526Z,26.07
2022-12-03T22:19:29.936Z,23.70
2022-12-03T22:22:06.843Z,24.00
2022-12-03T22:24:46.015Z,27.07
2022-12-03T22:27:23.857Z,26.40
2022-12-03T22:30:00.952Z,27.20
2022-12-03T22:32:37.663Z,26.27
2022-12-03T22:35:17.653Z,24.97
2022-12-03T22:37:54.392Z,26.83
2022-12-03T22:40:31.723Z,25.53
2022-12-03T22:43:08.523Z,26.77
2022-12-03T22:45:46.170Z,27.63
2022-12-03T22:48:23.868Z,27.77
2022-12-03T22:51:06.150Z,28.07
2022-12-03T22:53:45.556Z,25.90
2022-12-03T22:56:26.278Z,26.60
2022-12-03T22:59:05.373Z,27.57
2022-12-03T23:01:44.313Z,28.40
2022-12-03T23:04:21.354Z,25.47
2022-12-03T23:07:01.287Z,31.33
2022-12-03T23:09:38.022Z,29.00
